Time;durP1;ratioP1;P1;durP2;ratioP2;P2;SDS_P1;SDS_P2;PMS_P1;PMS_P2;Temp;Humidity;BMP_temperature;BMP_pressure;BME280_temperature;BME280_humidity;BME280_pressure;Samples;Min_cycle;Max_cycle;Signal;HPM_P1;HPM_P2
2022/08/03 00:01:53;;;;;;;2.03;1.60;;;;;;;21.45;61.87;99947.63;4993322;28;20400;-61
2022/08/03 00:04:36;;;;;;;2.70;1.42;;;;;;;21.45;61.62;99942.38;4993591;28;20414;-62
2022/08/03 00:07:23;;;;;;;;;;;;;;;21.44;61.66;99956.47;4993957;28;20103;-62
2022/08/03 00:10:08;;;;;;;2.90;1.60;;;;;;;21.44;61.75;99952.94;4994280;28;19980;-60
2022/08/03 00:12:55;;;;;;;8.13;2.58;;;;;;;21.43;61.56;99945.94;4994204;28;20053;-60
2022/08/03 00:15:41;;;;;;;8.00;1.90;;;;;;;21.43;61.83;99949.47;4994016;28;20138;-60
2022/08/03 00:18:28;;;;;;;5.38;2.10;;;;;;;21.43;61.66;99953.84;4993455;28;20053;-60
2022/08/03 00:21:12;;;;;;;4.57;2.63;;;;;;;21.43;61.73;99941.56;4994375;28;20052;-60
2022/08/03 00:23:58;;;;;;;6.25;2.42;;;;;;;21.44;61.95;99945.03;4994870;28;20124;-60
2022/08/03 00:26:47;;;;;;;4.60;1.95;;;;;;;21.44;62.01;99945.03;4994168;28;20517;-60
2022/08/03 00:29:32;;;;;;;2.83;2.03;;;;;;;21.43;61.94;99952.09;4993441;28;20468;-60
2022/08/03 00:32:15;;;;;;;7.65;2.20;;;;;;;21.42;61.58;99945.09;4994514;28;20053;-60
2022/08/03 00:34:59;;;;;;;6.18;2.20;;;;;;;21.42;61.72;99949.47;4993200;28;20053;-60
2022/08/03 00:37:43;;;;;;;7.72;2.67;;;;;;;21.41;61.88;99943.38;4992910;28;20056;-61
2022/08/03 00:40:27;;;;;;;5.35;2.20;;;;;;;21.41;61.62;99942.50;4994234;28;20045;-62
2022/08/03 00:43:11;;;;;;;5.10;2.15;;;;;;;21.41;61.81;99938.09;4993827;28;20134;-60
2022/08/03 00:45:56;;;;;;;8.30;3.33;;;;;;;21.41;61.83;99937.25;4994790;28;20069;-60
2022/08/03 00:48:40;;;;;;;4.60;2.83;;;;;;;21.40;61.92;99939.00;4998112;28;20053;-61
2022/08/03 00:51:24;;;;;;;4.97;2.60;;;;;;;21.40;61.77;99940.78;4998082;28;20069;-60
2022/08/03 00:54:10;;;;;;;6.28;2.40;;;;;;;21.39;61.76;99934.63;4997703;28;20081;-60
2022/08/03 00:56:54;;;;;;;6.88;2.42;;;;;;;21.39;61.81;99933.78;4997961;28;20049;-60
2022/08/03 00:59:39;;;;;;;6.00;2.10;;;;;;;21.38;61.84;99934.69;4996965;28;20053;-62
2022/08/03 01:02:22;;;;;;;4.82;2.35;;;;;;;21.37;61.75;99925.91;4997288;28;20505;-60
2022/08/03 01:05:08;;;;;;;7.20;2.30;;;;;;;21.37;61.91;99928.53;4997634;28;20049;-60
2022/08/03 01:07:55;;;;;;;7.32;2.78;;;;;;;21.37;62.09;99927.69;4996601;28;20049;-60
2022/08/03 01:11:04;;;;;;;5.68;2.60;;;;;;;21.38;61.87;99921.50;4996721;28;20077;-60
2022/08/03 01:14:08;;;;;;;6.10;2.60;;;;;;;21.36;61.89;99926.81;4997558;28;20093;-61
2022/08/03 01:17:09;;;;;;;4.53;2.40;;;;;;;21.36;61.92;99928.59;4996367;28;20516;-61
2022/08/03 01:20:06;;;;;;;9.32;2.65;;;;;;;21.35;61.99;99922.44;4996572;28;20112;-60
2022/08/03 01:23:18;;;;;;;6.55;2.40;;;;;;;21.34;61.95;99918.09;4996534;28;20054;-61
2022/08/03 01:26:32;;;;;;;7.72;2.80;;;;;;;21.32;61.96;99916.41;4996272;28;20042;-62
2022/08/03 01:29:16;;;;;;;4.93;2.30;;;;;;;21.30;61.90;99914.69;4996082;28;20069;-62
2022/08/03 01:32:15;;;;;;;4.55;2.50;;;;;;;21.29;61.91;99912.97;4997143;28;20089;-62
2022/08/03 01:35:11;;;;;;;6.53;2.45;;;;;;;21.29;61.87;99909.47;4997260;28;20138;-60
2022/08/03 01:37:59;;;;;;;2.95;1.90;;;;;;;21.29;61.97;99915.59;4996990;28;20049;-61
2022/08/03 01:40:45;;;;;;;8.50;2.65;;;;;;;21.30;62.32;99913.84;4995975;28;20049;-60
2022/08/03 01:43:30;;;;;;;5.60;2.30;;;;;;;21.31;61.87;99912.94;4996690;28;20053;-61
2022/08/03 01:46:15;;;;;;;3.72;2.42;;;;;;;21.30;62.06;99908.56;4996838;28;20109;-60
2022/08/03 01:49:00;;;;;;;5.30;2.53;;;;;;;21.29;61.87;99905.06;4996028;28;20517;-60
2022/08/03 01:51:51;;;;;;;4.35;2.78;;;;;;;21.29;61.84;99906.84;4996437;28;20129;-60
2022/08/03 01:54:42;;;;;;;7.80;2.30;;;;;;;21.28;62.01;99907.75;4996094;28;20533;-60
2022/08/03 01:57:29;;;;;;;5.25;2.70;;;;;;;21.27;61.87;99909.50;4994395;28;20528;-61
2022/08/03 02:00:13;;;;;;;5.38;2.72;;;;;;;21.26;61.93;99907.78;4995794;28;20057;-60
2022/08/03 02:03:03;;;;;;;3.33;2.42;;;;;;;21.25;61.71;99903.44;4996334;28;20057;-60
2022/08/03 02:05:49;;;;;;;6.50;2.35;;;;;;;21.26;61.69;99905.16;4996566;28;20571;-59
2022/08/03 02:08:34;;;;;;;6.55;2.50;;;;;;;21.24;61.70;99900.84;4995646;28;20094;-60
2022/08/03 02:11:21;;;;;;;7.32;3.00;;;;;;;21.23;61.88;99897.34;4995129;28;20422;-60
2022/08/03 02:14:06;;;;;;;4.45;2.72;;;;;;;21.23;61.71;99907.03;4996560;28;20061;-60
2022/08/03 02:16:54;;;;;;;4.55;3.03;;;;;;;21.23;61.65;99904.38;4995569;28;20524;-61
2022/08/03 02:19:42;;;;;;;8.05;2.97;;;;;;;21.20;61.85;99905.34;4995334;28;20055;-60
2022/08/03 02:22:30;;;;;;;6.38;2.75;;;;;;;21.20;61.75;99901.84;4995491;28;20145;-60
2022/08/03 02:25:15;;;;;;;8.38;3.25;;;;;;;21.20;61.65;99901.84;4995130;28;20121;-60
2022/08/03 02:28:06;;;;;;;6.40;2.65;;;;;;;21.20;61.82;99909.75;4996077;28;20041;-60
2022/08/03 02:30:56;;;;;;;5.80;2.60;;;;;;;21.18;61.60;99909.81;4995195;28;20569;-60
2022/08/03 02:33:49;;;;;;;6.97;3.10;;;;;;;21.19;61.59;99908.00;4995433;28;20105;-60
2022/08/03 02:36:39;;;;;;;6.63;2.90;;;;;;;21.16;61.70;99906.34;4995271;28;20072;-60
2022/08/03 02:39:27;;;;;;;4.90;2.75;;;;;;;21.15;61.62;99904.63;4995116;28;20448;-62
2022/08/03 02:42:14;;;;;;;5.85;2.97;;;;;;;21.14;61.72;99903.78;4995038;28;20109;-60
2022/08/03 02:45:04;;;;;;;4.22;2.47;;;;;;;21.14;61.74;99908.16;4995009;28;20054;-61
2022/08/03 02:47:57;;;;;;;6.00;2.72;;;;;;;21.13;61.59;99914.34;4994605;28;20057;-60
2022/08/03 02:50:46;;;;;;;4.07;2.72;;;;;;;21.13;61.77;99914.34;4995709;28;20057;-62
2022/08/03 02:53:37;;;;;;;7.55;3.30;;;;;;;21.12;61.66;99908.22;4994733;28;20121;-59
2022/08/03 02:56:24;;;;;;;7.15;3.17;;;;;;;21.11;61.88;99900.34;4995699;28;20120;-59
2022/08/03 02:59:09;;;;;;;6.35;3.00;;;;;;;21.10;61.86;99906.50;4994719;28;20049;-61
2022/08/03 03:01:54;;;;;;;4.70;2.78;;;;;;;21.10;61.79;99896.84;4994944;28;20563;-59
2022/08/03 03:04:39;;;;;;;7.72;3.03;;;;;;;21.09;61.88;99899.56;4994573;28;20520;-59
2022/08/03 03:07:25;;;;;;;7.97;2.75;;;;;;;21.09;61.91;99891.66;4995327;28;20129;-61
2022/08/03 03:10:10;;;;;;;3.85;3.08;;;;;;;21.08;61.72;99890.78;4994144;28;20122;-61
2022/08/03 03:12:56;;;;;;;8.05;3.08;;;;;;;21.08;61.64;99890.78;4995169;28;20592;-61
2022/08/03 03:15:48;;;;;;;6.75;2.97;;;;;;;21.07;62.05;99891.69;4994236;28;20053;-60
2022/08/03 03:18:35;;;;;;;8.77;3.13;;;;;;;21.08;61.76;99887.28;4995293;28;20049;-59
2022/08/03 03:21:20;;;;;;;4.65;2.53;;;;;;;21.07;61.82;99896.94;4994011;28;20494;-61
2022/08/03 03:24:06;;;;;;;6.18;3.13;;;;;;;21.07;61.79;99894.31;4995280;28;20112;-61
2022/08/03 03:26:51;;;;;;;7.38;2.63;;;;;;;21.07;61.86;99888.19;4993761;28;20050;-60
2022/08/03 03:29:38;;;;;;;8.75;2.78;;;;;;;21.06;61.91;99895.22;4994156;28;20406;-60
2022/08/03 03:32:24;;;;;;;6.72;3.55;;;;;;;21.05;61.79;99882.94;4993891;28;20045;-60
2022/08/03 03:35:10;;;;;;;9.73;3.13;;;;;;;21.06;61.71;99895.22;4995065;28;20516;-60
2022/08/03 03:37:55;;;;;;;7.28;2.92;;;;;;;21.05;61.84;99884.75;4994037;28;20112;-60
2022/08/03 03:40:42;;;;;;;7.18;2.95;;;;;;;21.05;61.63;99890.00;4993990;28;20461;-60
2022/08/03 03:43:28;;;;;;;10.38;3.65;;;;;;;21.05;61.86;99890.00;4993935;28;20060;-59
2022/08/03 03:46:15;;;;;;;5.90;3.40;;;;;;;21.03;61.78;99891.81;4994712;28;20402;-59
2022/08/03 03:48:59;;;;;;;13.63;3.05;;;;;;;21.04;61.99;99888.28;4993854;28;20056;-61
2022/08/03 03:51:44;;;;;;;6.57;3.08;;;;;;;21.03;61.86;99886.56;4994369;28;20050;-60
2022/08/03 03:54:42;;;;;;;10.60;3.42;;;;;;;21.03;61.96;99884.75;4994407;28;20609;-60
2022/08/03 03:57:27;;;;;;;5.03;2.70;;;;;;;21.01;61.84;99881.34;4993501;28;20101;-60
2022/08/03 04:00:14;;;;;;;5.15;2.70;;;;;;;21.02;61.92;99887.44;4994668;28;20401;-60
2022/08/03 04:02:58;;;;;;;7.07;2.85;;;;;;;21.01;61.95;99886.59;4993399;28;20093;-60
2022/08/03 04:11:59;;;;;;;5.82;3.05;;;;;;;21.01;61.96;99889.25;4994312;28;20056;-61
2022/08/03 04:14:46;;;;;;;7.38;3.13;;;;;;;21.01;61.99;99889.25;4993519;28;20108;-60
2022/08/03 04:17:31;;;;;;;7.25;3.03;;;;;;;21.01;62.14;99891.88;4993160;28;20052;-60
2022/08/03 04:20:18;;;;;;;8.90;3.15;;;;;;;21.02;62.08;99890.09;4993709;28;20050;-60
2022/08/03 04:23:03;;;;;;;6.22;3.05;;;;;;;21.01;61.97;99894.50;4993333;28;20061;-60
2022/08/03 04:25:49;;;;;;;7.10;3.22;;;;;;;21.01;62.20;99888.38;4993290;28;20050;-62
2022/08/03 04:28:34;;;;;;;11.30;2.78;;;;;;;21.00;62.01;99882.25;4993924;28;20124;-60
2022/08/03 04:31:22;;;;;;;5.47;2.58;;;;;;;21.01;62.21;99888.38;4993510;28;20089;-60
2022/08/03 04:34:09;;;;;;;6.30;3.00;;;;;;;20.99;62.21;99881.38;4993289;28;20045;-60
2022/08/03 04:37:01;;;;;;;8.38;2.90;;;;;;;20.99;62.20;99886.63;4993805;28;20046;-60
2022/08/03 04:39:51;;;;;;;9.23;3.38;;;;;;;20.98;62.23;99882.28;4993127;28;20173;-62
2022/08/03 04:42:38;;;;;;;3.83;2.65;;;;;;;20.98;62.17;99881.41;4993278;28;20595;-60
2022/08/03 04:45:24;;;;;;;4.57;2.97;;;;;;;20.97;62.25;99888.44;4993779;28;20107;-60
2022/08/03 04:48:08;;;;;;;7.88;3.10;;;;;;;20.97;62.01;99887.59;4993176;28;20126;-60
2022/08/03 04:50:53;;;;;;;3.33;2.55;;;;;;;20.97;62.12;99887.59;4993809;28;20481;-60
2022/08/03 04:53:42;;;;;;;7.97;2.92;;;;;;;20.96;62.32;99899.88;4992946;28;20073;-60
2022/08/03 04:56:29;;;;;;;7.78;2.78;;;;;;;20.96;62.03;99897.25;4993290;28;20053;-60
2022/08/03 04:59:16;;;;;;;4.60;2.40;;;;;;;20.95;62.29;99892.91;4993957;28;20061;-60
2022/08/03 05:02:00;;;;;;;4.93;3.30;;;;;;;20.96;62.19;99896.41;4992548;28;20516;-60
2022/08/03 05:04:45;;;;;;;6.18;3.13;;;;;;;20.96;62.38;99905.16;4993285;28;20049;-61
2022/08/03 05:07:29;;;;;;;6.22;3.35;;;;;;;20.96;62.32;99907.78;4992790;28;20100;-61
2022/08/03 05:10:16;;;;;;;7.82;3.17;;;;;;;20.96;62.16;99907.78;4992936;28;20054;-62
2022/08/03 05:13:03;;;;;;;4.15;2.90;;;;;;;20.97;62.41;99903.41;4992988;28;20104;-62
2022/08/03 05:15:47;;;;;;;6.80;2.90;;;;;;;20.97;62.30;99908.66;4992896;28;20144;-60
2022/08/03 05:18:34;;;;;;;6.03;3.22;;;;;;;20.95;62.45;99907.84;4993827;28;20053;-60
2022/08/03 05:21:23;;;;;;;5.43;3.08;;;;;;;20.95;62.34;99902.59;4992725;28;20050;-60
2022/08/03 05:24:10;;;;;;;7.78;2.95;;;;;;;20.94;62.47;99909.59;4992542;28;20049;-60
2022/08/03 05:26:54;;;;;;;13.07;2.88;;;;;;;20.93;62.34;99913.19;4992595;28;20046;-62
2022/08/03 05:29:38;;;;;;;6.45;2.83;;;;;;;20.93;62.47;99914.94;4992436;28;20557;-62
2022/08/03 05:32:21;;;;;;;8.18;3.05;;;;;;;20.91;62.36;99912.34;4995142;28;20497;-62
2022/08/03 05:35:09;;;;;;;4.10;2.72;;;;;;;20.90;62.36;99913.25;4997251;28;20162;-63
2022/08/03 05:37:56;;;;;;;3.90;2.45;;;;;;;20.90;62.45;99912.38;4996073;28;20152;-62
2022/08/03 05:40:43;;;;;;;5.38;2.75;;;;;;;20.90;62.48;99910.63;4997208;28;20049;-62
2022/08/03 05:43:32;;;;;;;7.50;3.72;;;;;;;20.90;62.37;99909.75;4996790;28;20528;-61
2022/08/03 05:46:19;;;;;;;6.20;3.33;;;;;;;20.90;62.50;99912.38;4996197;28;20049;-60
2022/08/03 05:49:03;;;;;;;6.85;3.05;;;;;;;20.89;62.53;99911.53;4995942;28;20093;-60
2022/08/03 05:51:50;;;;;;;9.07;3.30;;;;;;;20.91;62.57;99914.09;4995941;28;20104;-61
2022/08/03 05:54:39;;;;;;;7.53;3.10;;;;;;;20.90;62.71;99908.00;4996442;28;20085;-60
2022/08/03 05:57:24;;;;;;;9.02;3.33;;;;;;;20.91;62.63;99912.34;4995924;28;20052;-62
2022/08/03 06:00:10;;;;;;;7.20;2.60;;;;;;;20.91;62.74;99911.47;4995783;28;20105;-60
2022/08/03 06:02:56;;;;;;;5.70;3.05;;;;;;;20.92;62.63;99918.47;4995389;28;20058;-60
2022/08/03 06:05:43;;;;;;;6.38;2.92;;;;;;;20.92;62.49;99911.44;4995217;28;20049;-60
2022/08/03 06:08:30;;;;;;;7.90;2.47;;;;;;;20.92;62.78;99911.44;4996411;28;20050;-61
2022/08/03 06:11:16;;;;;;;6.90;3.25;;;;;;;20.92;62.70;99916.72;4995902;28;20166;-60
2022/08/03 06:14:03;;;;;;;5.85;2.70;;;;;;;20.92;62.76;99914.06;4996386;28;20474;-60
2022/08/03 06:16:55;;;;;;;8.45;3.00;;;;;;;20.93;62.89;99920.19;4996591;28;20058;-60
2022/08/03 06:19:39;;;;;;;8.65;3.28;;;;;;;20.93;62.80;99920.19;4995277;28;20581;-60
2022/08/03 06:22:25;;;;;;;8.07;2.92;;;;;;;20.94;62.70;99917.50;4996517;28;20045;-60
2022/08/03 06:25:12;;;;;;;5.63;2.60;;;;;;;20.94;62.83;99917.50;4996330;28;20053;-61
2022/08/03 06:27:56;;;;;;;4.95;2.97;;;;;;;20.94;62.77;99914.88;4995810;28;20041;-62
2022/08/03 06:30:40;;;;;;;5.80;2.80;;;;;;;20.96;62.77;99918.31;4996032;28;20520;-62
2022/08/03 06:33:27;;;;;;;6.60;3.30;;;;;;;20.96;62.78;99917.47;4995360;28;20053;-60
2022/08/03 06:36:11;;;;;;;8.10;2.70;;;;;;;20.98;62.83;99918.31;4995746;28;20053;-62
2022/08/03 06:38:58;;;;;;;5.30;3.10;;;;;;;20.98;62.66;99916.50;4996174;28;20050;-61
2022/08/03 06:41:43;;;;;;;3.90;2.63;;;;;;;21.00;62.83;99916.50;4995127;28;20057;-61
2022/08/03 06:44:30;;;;;;;3.83;2.33;;;;;;;21.01;62.55;99923.50;4994567;28;20101;-61
2022/08/03 06:47:19;;;;;;;5.63;2.67;;;;;;;21.03;62.80;99916.38;4994248;28;20101;-61
2022/08/03 06:50:08;;;;;;;11.35;2.90;;;;;;;21.04;62.85;99919.88;4994886;28;20045;-60
2022/08/03 06:52:56;;;;;;;6.82;3.00;;;;;;;21.05;62.91;99925.09;4995659;28;20100;-60
2022/08/03 06:55:42;;;;;;;7.45;2.92;;;;;;;21.06;62.73;99924.19;4994709;28;20111;-60
2022/08/03 06:58:26;;;;;;;6.28;2.78;;;;;;;21.06;62.76;99926.84;4994688;28;20068;-60
2022/08/03 07:01:10;;;;;;;4.45;2.55;;;;;;;21.08;62.70;99922.38;4995599;28;20081;-60
2022/08/03 07:03:55;;;;;;;4.05;2.22;;;;;;;21.11;62.77;99929.31;4995611;28;20192;-60
2022/08/03 07:06:39;;;;;;;5.60;2.28;;;;;;;21.11;62.72;99922.31;4995101;28;20096;-60
2022/08/03 07:09:25;;;;;;;6.18;2.65;;;;;;;21.12;62.68;99934.56;4994522;28;20513;-60
2022/08/03 07:12:14;;;;;;;5.78;2.80;;;;;;;21.14;62.64;99937.16;4995203;28;20046;-61
2022/08/03 07:15:02;;;;;;;7.10;2.65;;;;;;;21.14;62.80;99931.88;4994402;28;20108;-60
2022/08/03 07:17:49;;;;;;;5.95;2.60;;;;;;;21.14;62.80;99930.13;4994171;28;20057;-61
2022/08/03 07:20:36;;;;;;;3.42;2.28;;;;;;;21.16;62.78;99943.22;4994945;28;20053;-61
2022/08/03 07:23:24;;;;;;;6.57;2.35;;;;;;;21.17;62.69;99941.47;4994140;28;20132;-61
2022/08/03 07:26:10;;;;;;;5.80;2.80;;;;;;;21.18;62.76;99940.56;4994028;28;20049;-61
2022/08/03 07:28:59;;;;;;;4.57;2.35;;;;;;;21.19;62.56;99940.50;4995032;28;20069;-62
2022/08/03 07:31:44;;;;;;;5.57;2.53;;;;;;;21.19;62.53;99942.28;4993937;28;20073;-60
2022/08/03 07:34:29;;;;;;;7.50;2.20;;;;;;;21.20;62.60;99941.38;4995012;28;20101;-62
2022/08/03 07:37:16;;;;;;;4.90;2.33;;;;;;;21.19;62.75;99943.16;4994636;28;20053;-62
2022/08/03 07:40:02;;;;;;;8.27;2.70;;;;;;;21.21;62.64;99943.09;4994652;28;20046;-61
2022/08/03 07:42:48;;;;;;;7.00;2.53;;;;;;;21.20;62.58;99942.25;4993950;28;20466;-61
2022/08/03 07:45:32;;;;;;;6.40;2.38;;;;;;;21.22;62.55;99939.56;4994905;28;20049;-61
2022/08/03 07:48:16;;;;;;;5.15;2.80;;;;;;;21.23;62.77;99943.91;4993505;28;20054;-61
2022/08/03 07:51:04;;;;;;;8.85;2.20;;;;;;;21.24;62.56;99937.72;4993778;28;20105;-62
2022/08/03 07:53:48;;;;;;;6.57;2.97;;;;;;;21.23;62.49;99942.16;4993607;28;20461;-62
2022/08/03 07:56:32;;;;;;;4.82;2.28;;;;;;;21.25;62.42;99942.97;4993729;28;20101;-60
2022/08/03 07:59:18;;;;;;;7.22;2.63;;;;;;;21.26;62.53;99942.03;4994731;28;20459;-62
2022/08/03 08:02:06;;;;;;;6.10;2.30;;;;;;;21.26;62.46;99935.91;4994304;28;20169;-60
2022/08/03 08:04:50;;;;;;;3.90;2.20;;;;;;;21.27;62.42;99932.38;4994655;28;20511;-60
2022/08/03 08:07:34;;;;;;;5.85;3.00;;;;;;;21.27;62.50;99938.50;4994318;28;20561;-60
2022/08/03 08:10:20;;;;;;;6.10;2.58;;;;;;;21.28;62.51;99942.88;4994616;28;20097;-60
2022/08/03 08:13:05;;;;;;;7.28;2.50;;;;;;;21.29;62.26;99938.47;4994173;28;20065;-62
2022/08/03 08:15:49;;;;;;;2.45;2.10;;;;;;;21.29;62.73;99944.59;4994457;28;20061;-61
2022/08/03 08:18:33;;;;;;;5.40;2.65;;;;;;;21.32;62.38;99941.03;4993459;28;20169;-60
2022/08/03 08:21:20;;;;;;;9.05;2.55;;;;;;;21.33;62.30;99934.84;4994325;28;20124;-62
2022/08/03 08:24:05;;;;;;;6.90;3.05;;;;;;;21.35;62.27;99940.06;4993324;28;20048;-61
2022/08/03 08:26:52;;;;;;;4.70;2.42;;;;;;;21.35;62.25;99940.06;4993380;28;20104;-61
2022/08/03 08:29:36;;;;;;;4.22;2.20;;;;;;;21.36;62.61;99940.00;4994019;28;20434;-61
2022/08/03 08:32:21;;;;;;;7.53;2.20;;;;;;;21.38;62.42;99937.34;4994264;28;20053;-60
2022/08/03 08:35:05;;;;;;;4.03;2.50;;;;;;;21.39;62.37;99934.63;4993295;28;20045;-60
2022/08/03 08:37:52;;;;;;;3.47;2.00;;;;;;;21.39;62.34;99939.06;4993051;28;20060;-61
2022/08/03 08:40:36;;;;;;;3.13;1.60;;;;;;;21.43;62.06;99940.66;4993962;28;20405;-61
2022/08/03 08:43:20;;;;;;;6.38;2.45;;;;;;;21.43;62.13;99944.19;4993895;28;20053;-62
2022/08/03 08:46:08;;;;;;;4.50;2.10;;;;;;;21.47;62.21;99939.66;4994162;28;20422;-62
2022/08/03 08:48:57;;;;;;;8.00;2.70;;;;;;;21.47;62.11;99944.09;4993333;28;20246;-62
2022/08/03 08:51:47;;;;;;;4.25;2.55;;;;;;;21.50;62.18;99949.25;4993090;28;20114;-61
2022/08/03 08:54:35;;;;;;;10.50;2.55;;;;;;;21.52;62.21;99939.53;4993135;28;20108;-61
2022/08/03 08:57:25;;;;;;;3.08;2.17;;;;;;;21.53;62.06;99939.50;4993016;28;20057;-61
2022/08/03 09:00:13;;;;;;;8.85;1.98;;;;;;;21.56;62.10;99943.81;4993076;28;20084;-62
2022/08/03 09:02:59;;;;;;;5.10;2.50;;;;;;;21.57;62.19;99938.47;4993835;28;20508;-62
2022/08/03 09:05:44;;;;;;;8.27;2.45;;;;;;;21.59;62.00;99938.44;4992514;28;20049;-62
2022/08/03 09:08:29;;;;;;;5.93;2.72;;;;;;;21.60;62.06;99938.41;4997054;28;20049;-60
2022/08/03 09:11:13;;;;;;;2.97;1.67;;;;;;;21.62;62.05;99940.13;4996565;28;20100;-60
2022/08/03 09:14:00;;;;;;;3.97;2.25;;;;;;;21.64;62.14;99947.09;4997514;28;20080;-61
2022/08/03 09:17:07;;;;;;;5.80;2.03;;;;;;;21.65;61.93;99938.25;4997382;28;20073;-60
2022/08/03 09:20:11;;;;;;;6.72;2.08;;;;;;;21.66;61.97;99939.97;4996517;28;20052;-61
2022/08/03 09:23:00;;;;;;;4.82;2.00;;;;;;;21.67;61.97;99936.44;4997536;28;20046;-62
2022/08/03 09:25:45;;;;;;;6.88;2.33;;;;;;;21.69;61.93;99944.31;4996209;28;20053;-62
2022/08/03 09:28:36;;;;;;;3.92;2.03;;;;;;;21.71;61.91;99937.22;4997199;28;20054;-62
2022/08/03 09:31:28;;;;;;;5.00;2.13;;;;;;;21.72;61.86;99939.81;4997060;28;20405;-62
2022/08/03 09:34:15;;;;;;;4.60;2.00;;;;;;;21.75;61.86;99936.19;4996524;28;20517;-62
2022/08/03 09:36:58;;;;;;;5.47;2.28;;;;;;;21.75;61.82;99939.72;4996294;28;20058;-62
2022/08/03 09:39:46;;;;;;;3.80;2.05;;;;;;;21.78;61.88;99932.63;4996945;28;20104;-61
2022/08/03 09:42:36;;;;;;;3.42;2.03;;;;;;;21.79;61.85;99926.44;4996945;28;20058;-60
2022/08/03 09:45:29;;;;;;;5.15;2.05;;;;;;;21.79;61.97;99924.63;4995811;28;20057;-61
2022/08/03 09:48:33;;;;;;;4.05;2.28;;;;;;;21.81;61.69;99924.56;4996039;28;20050;-60
2022/08/03 09:51:23;;;;;;;9.10;2.10;;;;;;;21.83;61.90;99928.91;4996800;28;20109;-61
2022/08/03 09:54:08;;;;;;;3.53;2.47;;;;;;;21.85;61.90;99932.38;4995785;28;20064;-61
2022/08/03 09:56:55;;;;;;;5.85;2.50;;;;;;;21.87;61.86;99927.91;4996715;28;20060;-60
2022/08/03 09:59:40;;;;;;;5.20;2.45;;;;;;;21.88;61.65;99928.75;4995889;28;20041;-62
2022/08/03 10:02:26;;;;;;;4.85;2.15;;;;;;;21.90;61.86;99930.41;4996260;28;20065;-62
2022/08/03 10:05:15;;;;;;;5.05;2.20;;;;;;;21.92;61.79;99924.22;4995544;28;20104;-62
2022/08/03 10:08:13;;;;;;;6.03;2.75;;;;;;;21.94;61.88;99925.06;4995600;28;20050;-62
2022/08/03 10:11:00;;;;;;;5.43;2.55;;;;;;;21.96;61.69;99925.88;4995709;28;20121;-62
2022/08/03 10:13:44;;;;;;;4.63;2.28;;;;;;;21.98;61.81;99924.03;4996460;28;20046;-62
2022/08/03 10:16:33;;;;;;;6.68;2.53;;;;;;;21.98;61.66;99919.63;4996497;28;20524;-62
2022/08/03 10:19:19;;;;;;;10.25;2.80;;;;;;;21.99;61.91;99921.34;4994420;28;20053;-62
2022/08/03 10:22:11;;;;;;;7.45;2.15;;;;;;;22.01;61.77;99916.03;4996015;28;20177;-62
2022/08/03 10:25:01;;;;;;;3.10;1.80;;;;;;;22.02;61.69;99913.31;4996047;28;20177;-63
2022/08/03 10:27:50;;;;;;;3.72;2.05;;;;;;;22.04;61.83;99900.06;4994973;28;20053;-63
2022/08/03 10:30:38;;;;;;;9.68;2.55;;;;;;;22.06;61.42;99903.53;4995191;28;20056;-62
2022/08/03 10:33:33;;;;;;;6.90;1.90;;;;;;;22.07;61.48;99904.41;4995360;28;20041;-62
2022/08/03 10:36:20;;;;;;;3.72;2.03;;;;;;;22.08;61.39;99903.50;4995171;28;20065;-63
2022/08/03 10:39:07;;;;;;;4.53;2.10;;;;;;;22.08;61.38;99901.69;4995157;28;20053;-61
2022/08/03 10:41:54;;;;;;;3.05;1.70;;;;;;;22.09;61.45;99903.44;4995029;28;20053;-61
2022/08/03 10:44:41;;;;;;;7.53;2.70;;;;;;;22.11;61.43;99895.47;4994993;28;20085;-61
2022/08/03 10:47:25;;;;;;;3.78;2.08;;;;;;;22.11;61.29;99893.69;4994773;28;20064;-62
2022/08/03 10:50:10;;;;;;;6.20;2.10;;;;;;;22.12;61.36;99892.78;4994732;28;20049;-62
2022/08/03 10:52:56;;;;;;;4.35;1.98;;;;;;;22.14;61.31;99896.22;4995579;28;20101;-62
2022/08/03 10:58:49;;;;;;;3.53;1.85;;;;;;;22.17;61.10;99893.50;4995758;28;20465;-62
2022/08/03 11:01:51;;;;;;;5.10;2.42;;;;;;;22.20;61.33;99887.22;4994678;28;20060;-63
2022/08/03 11:04:38;;;;;;;5.65;1.90;;;;;;;22.20;61.28;99882.78;4994716;28;20145;-62
2022/08/03 11:07:24;;;;;;;3.28;1.92;;;;;;;22.23;61.14;99886.25;4995401;28;20066;-61
2022/08/03 11:10:29;;;;;;;4.10;1.67;;;;;;;22.25;61.18;99889.69;4995554;28;20053;-61
2022/08/03 11:13:16;;;;;;;2.70;1.90;;;;;;;22.26;60.99;99873.84;4994386;28;20068;-61
2022/08/03 11:16:02;;;;;;;3.90;2.50;;;;;;;22.29;60.94;99872.84;4994807;28;20042;-61
2022/08/03 11:19:00;;;;;;;3.50;1.58;;;;;;;22.31;61.14;99865.75;4994924;28;20092;-62
2022/08/03 11:21:48;;;;;;;6.07;1.60;;;;;;;22.32;60.86;99872.75;4994333;28;20462;-62
2022/08/03 11:24:35;;;;;;;6.90;2.13;;;;;;;22.33;60.75;99874.47;4994468;28;20053;-62
2022/08/03 11:27:24;;;;;;;5.95;2.00;;;;;;;22.34;60.89;99873.56;4994768;28;20050;-62
2022/08/03 11:30:18;;;;;;;4.78;1.73;;;;;;;22.34;60.97;99882.31;4993898;28;20045;-62
2022/08/03 11:33:02;;;;;;;3.13;1.65;;;;;;;22.33;60.78;99864.75;4994211;28;20050;-61
2022/08/03 11:36:00;;;;;;;4.38;1.50;;;;;;;22.32;60.83;99865.69;4994827;28;20080;-61
2022/08/03 11:39:13;;;;;;;5.97;1.80;;;;;;;22.35;60.84;99867.34;4994062;28;20134;-61
2022/08/03 11:41:57;;;;;;;2.67;1.50;;;;;;;22.37;60.58;99876.06;4994848;28;20057;-60
2022/08/03 11:44:44;;;;;;;;;;;;;;;22.39;60.75;99873.38;4995119;28;20080;-61
2022/08/03 11:47:32;;;;;;;2.55;1.23;;;;;;;22.36;60.69;99866.41;4994163;28;19972;-61
2022/08/03 11:50:17;;;;;;;2.72;1.63;;;;;;;22.38;60.58;99861.09;4994901;28;20065;-62
2022/08/03 11:53:07;;;;;;;2.80;1.88;;;;;;;22.38;60.76;99859.31;4994426;28;20520;-62
2022/08/03 11:56:01;;;;;;;2.85;1.75;;;;;;;22.40;60.68;99865.41;4994031;28;20120;-62
2022/08/03 11:58:53;;;;;;;2.95;1.40;;;;;;;22.42;60.51;99873.31;4994576;28;20053;-62
2022/08/03 12:01:44;;;;;;;5.47;1.65;;;;;;;22.43;60.34;99872.38;4994193;28;20100;-61
2022/08/03 12:04:29;;;;;;;2.65;1.40;;;;;;;22.43;60.19;99872.38;4993455;28;20104;-61
2022/08/03 12:07:12;;;;;;;2.20;1.55;;;;;;;22.43;60.58;99859.16;4994216;28;20052;-60
2022/08/03 12:10:06;;;;;;;;;;;;;;;22.42;60.59;99858.31;4994633;28;20120;-61
2022/08/03 12:12:58;;;;;;;3.30;1.02;;;;;;;22.41;60.25;99859.22;4993114;28;20273;-61
2022/08/03 12:15:49;;;;;;;3.40;1.55;;;;;;;22.42;60.39;99865.41;4994016;28;20113;-61
2022/08/03 12:18:33;;;;;;;2.15;1.45;;;;;;;22.45;60.45;99859.97;4993227;28;20464;-62
2022/08/03 12:21:17;;;;;;;3.63;1.40;;;;;;;22.47;60.38;99858.16;4994026;28;20052;-62
2022/08/03 12:24:03;;;;;;;3.58;1.70;;;;;;;22.48;60.48;99857.25;4993938;28;20509;-61
2022/08/03 12:26:49;;;;;;;2.67;1.27;;;;;;;22.49;60.24;99853.69;4993309;28;20062;-61
2022/08/03 12:29:33;;;;;;;2.30;1.30;;;;;;;22.51;60.41;99851.84;4993406;28;20050;-60
2022/08/03 12:32:17;;;;;;;4.18;1.27;;;;;;;22.51;60.34;99850.06;4993052;28;20181;-61
2022/08/03 12:35:03;;;;;;;2.95;1.63;;;;;;;22.54;60.10;99845.59;4993061;28;20053;-61
2022/08/03 12:37:48;;;;;;;3.85;1.33;;;;;;;22.59;60.07;99844.50;4993610;28;20052;-60
2022/08/03 12:40:32;;;;;;;2.90;1.50;;;;;;;22.61;60.11;99844.47;4993028;28;20052;-61
2022/08/03 12:43:16;;;;;;;4.05;1.75;;;;;;;22.63;59.90;99847.91;4996953;28;20069;-61
2022/08/03 12:46:11;;;;;;;2.40;1.00;;;;;;;22.63;60.19;99829.41;4998146;28;20073;-62
2022/08/03 12:49:04;;;;;;;2.08;1.25;;;;;;;22.61;59.88;99837.38;4996798;28;20058;-62
2022/08/03 12:51:50;;;;;;;4.47;1.40;;;;;;;22.63;59.67;99843.47;4997014;28;20081;-62
2022/08/03 12:54:37;;;;;;;4.78;1.30;;;;;;;22.64;59.84;99844.34;4997698;28;20100;-62
2022/08/03 12:57:21;;;;;;;1.95;1.23;;;;;;;22.65;59.70;99846.91;4997100;28;20061;-62
2022/08/03 13:00:14;;;;;;;1.38;1.10;;;;;;;22.67;59.54;99836.28;4997469;28;20422;-61
2022/08/03 13:03:03;;;;;;;4.35;1.35;;;;;;;22.67;59.70;99831.00;4996750;28;20409;-60
2022/08/03 13:05:47;;;;;;;5.68;1.42;;;;;;;22.66;59.51;99835.44;4996638;28;20053;-61
2022/08/03 13:08:31;;;;;;;2.55;1.20;;;;;;;22.69;59.77;99833.59;4997499;28;20387;-61
2022/08/03 13:11:23;;;;;;;1.92;1.20;;;;;;;22.70;59.63;99832.69;4997586;28;20100;-62
2022/08/03 13:14:08;;;;;;;3.50;1.30;;;;;;;22.74;59.57;99831.63;4996769;28;20108;-61
2022/08/03 13:16:54;;;;;;;2.38;1.23;;;;;;;22.74;59.59;99831.63;4997608;28;20129;-60
2022/08/03 13:19:39;;;;;;;2.08;1.30;;;;;;;22.76;59.36;99829.78;4997205;28;20136;-61